sensor_id;sensor_type;location;lat;lon;timestamp;P1;durP1;ratioP1;P2;durP2;ratioP2
32297;SDS011;18782;48.984;8.548;2022-11-02T00:00:29;7.40;;;3.30;;
32297;SDS011;18782;48.984;8.548;2022-11-02T00:02:57;6.82;;;3.80;;
32297;SDS011;18782;48.984;8.548;2022-11-02T00:05:25;7.25;;;3.67;;
32297;SDS011;18782;48.984;8.548;2022-11-02T00:07:53;6.35;;;3.50;;
32297;SDS011;18782;48.984;8.548;2022-11-02T00:10:21;7.10;;;3.47;;
32297;SDS011;18782;48.984;8.548;2022-11-02T00:12:50;5.20;;;3.00;;
32297;SDS011;18782;48.984;8.548;2022-11-02T00:15:18;6.57;;;3.35;;
32297;SDS011;18782;48.984;8.548;2022-11-02T00:17:47;6.28;;;3.60;;
32297;SDS011;18782;48.984;8.548;2022-11-02T00:20:19;9.10;;;3.20;;
32297;SDS011;18782;48.984;8.548;2022-11-02T00:22:48;7.32;;;3.63;;
32297;SDS011;18782;48.984;8.548;2022-11-02T00:25:18;7.45;;;2.85;;
32297;SDS011;18782;48.984;8.548;2022-11-02T00:27:49;5.75;;;2.72;;
32297;SDS011;18782;48.984;8.548;2022-11-02T00:30:17;4.85;;;2.60;;
32297;SDS011;18782;48.984;8.548;2022-11-02T00:32:45;5.57;;;2.88;;
32297;SDS011;18782;48.984;8.548;2022-11-02T00:35:14;4.00;;;2.85;;
32297;SDS011;18782;48.984;8.548;2022-11-02T00:37:42;9.80;;;2.90;;
32297;SDS011;18782;48.984;8.548;2022-11-02T00:40:10;5.95;;;2.95;;
32297;SDS011;18782;48.984;8.548;2022-11-02T00:42:38;6.82;;;3.00;;
32297;SDS011;18782;48.984;8.548;2022-11-02T00:45:06;5.20;;;2.78;;
32297;SDS011;18782;48.984;8.548;2022-11-02T00:47:34;9.52;;;2.95;;
32297;SDS011;18782;48.984;8.548;2022-11-02T00:50:03;6.53;;;3.20;;
32297;SDS011;18782;48.984;8.548;2022-11-02T00:52:38;8.80;;;3.55;;
32297;SDS011;18782;48.984;8.548;2022-11-02T00:55:06;7.40;;;3.40;;
32297;SDS011;18782;48.984;8.548;2022-11-02T00:57:39;6.38;;;3.00;;
32297;SDS011;18782;48.984;8.548;2022-11-02T01:00:08;7.20;;;3.38;;
32297;SDS011;18782;48.984;8.548;2022-11-02T01:02:37;6.47;;;3.08;;
32297;SDS011;18782;48.984;8.548;2022-11-02T01:05:06;11.40;;;4.13;;
32297;SDS011;18782;48.984;8.548;2022-11-02T01:07:35;8.00;;;3.40;;
32297;SDS011;18782;48.984;8.548;2022-11-02T01:10:05;5.90;;;3.03;;
32297;SDS011;18782;48.984;8.548;2022-11-02T01:12:35;8.55;;;3.30;;
32297;SDS011;18782;48.984;8.548;2022-11-02T01:15:03;13.20;;;3.95;;
32297;SDS011;18782;48.984;8.548;2022-11-02T01:17:31;7.47;;;3.30;;
32297;SDS011;18782;48.984;8.548;2022-11-02T01:20:02;8.13;;;3.35;;
32297;SDS011;18782;48.984;8.548;2022-11-02T01:22:31;5.13;;;2.90;;
32297;SDS011;18782;48.984;8.548;2022-11-02T01:24:58;8.40;;;2.83;;
32297;SDS011;18782;48.984;8.548;2022-11-02T01:27:27;5.72;;;2.83;;
32297;SDS011;18782;48.984;8.548;2022-11-02T01:29:55;6.82;;;3.60;;
32297;SDS011;18782;48.984;8.548;2022-11-02T01:32:23;4.50;;;3.05;;
32297;SDS011;18782;48.984;8.548;2022-11-02T01:34:50;7.03;;;3.42;;
32297;SDS011;18782;48.984;8.548;2022-11-02T01:37:18;7.68;;;3.42;;
32297;SDS011;18782;48.984;8.548;2022-11-02T01:39:46;7.40;;;2.95;;
32297;SDS011;18782;48.984;8.548;2022-11-02T01:42:18;8.18;;;3.17;;
32297;SDS011;18782;48.984;8.548;2022-11-02T01:44:48;7.60;;;3.33;;
32297;SDS011;18782;48.984;8.548;2022-11-02T01:47:17;6.80;;;3.25;;
32297;SDS011;18782;48.984;8.548;2022-11-02T01:49:50;5.85;;;2.78;;
32297;SDS011;18782;48.984;8.548;2022-11-02T01:52:23;6.57;;;3.15;;
32297;SDS011;18782;48.984;8.548;2022-11-02T01:54:56;7.22;;;3.33;;
32297;SDS011;18782;48.984;8.548;2022-11-02T01:57:27;8.27;;;3.28;;
32297;SDS011;18782;48.984;8.548;2022-11-02T02:00:02;11.95;;;3.22;;
32297;SDS011;18782;48.984;8.548;2022-11-02T02:02:41;6.97;;;3.20;;
32297;SDS011;18782;48.984;8.548;2022-11-02T02:05:12;6.80;;;3.13;;
32297;SDS011;18782;48.984;8.548;2022-11-02T02:07:42;7.50;;;3.20;;
32297;SDS011;18782;48.984;8.548;2022-11-02T02:10:11;6.43;;;3.05;;
32297;SDS011;18782;48.984;8.548;2022-11-02T02:12:39;8.10;;;3.10;;
32297;SDS011;18782;48.984;8.548;2022-11-02T02:15:15;5.15;;;2.83;;
32297;SDS011;18782;48.984;8.548;2022-11-02T02:17:45;7.00;;;3.17;;
32297;SDS011;18782;48.984;8.548;2022-11-02T02:20:18;5.60;;;2.63;;
32297;SDS011;18782;48.984;8.548;2022-11-02T02:23:06;9.32;;;3.08;;
32297;SDS011;18782;48.984;8.548;2022-11-02T02:28:46;6.70;;;3.10;;
32297;SDS011;18782;48.984;8.548;2022-11-02T02:31:20;6.53;;;3.03;;
32297;SDS011;18782;48.984;8.548;2022-11-02T02:33:55;6.75;;;2.92;;
32297;SDS011;18782;48.984;8.548;2022-11-02T02:36:28;6.40;;;2.58;;
32297;SDS011;18782;48.984;8.548;2022-11-02T02:39:00;4.40;;;2.83;;
32297;SDS011;18782;48.984;8.548;2022-11-02T02:41:35;6.55;;;3.33;;
32297;SDS011;18782;48.984;8.548;2022-11-02T02:44:07;6.90;;;2.70;;
32297;SDS011;18782;48.984;8.548;2022-11-02T02:46:39;5.45;;;2.97;;
32297;SDS011;18782;48.984;8.548;2022-11-02T02:49:13;7.75;;;2.70;;
32297;SDS011;18782;48.984;8.548;2022-11-02T02:51:44;6.90;;;2.47;;
32297;SDS011;18782;48.984;8.548;2022-11-02T02:54:14;5.47;;;2.90;;
32297;SDS011;18782;48.984;8.548;2022-11-02T02:56:46;7.18;;;2.50;;
32297;SDS011;18782;48.984;8.548;2022-11-02T02:59:19;7.03;;;2.67;;
32297;SDS011;18782;48.984;8.548;2022-11-02T03:01:50;5.22;;;2.60;;
32297;SDS011;18782;48.984;8.548;2022-11-02T03:04:20;6.00;;;3.08;;
32297;SDS011;18782;48.984;8.548;2022-11-02T03:06:48;6.60;;;3.42;;
32297;SDS011;18782;48.984;8.548;2022-11-02T03:09:22;7.97;;;2.70;;
32297;SDS011;18782;48.984;8.548;2022-11-02T03:12:04;5.18;;;2.40;;
32297;SDS011;18782;48.984;8.548;2022-11-02T03:14:55;7.03;;;2.60;;
32297;SDS011;18782;48.984;8.548;2022-11-02T03:17:39;6.00;;;2.17;;
32297;SDS011;18782;48.984;8.548;2022-11-02T03:20:15;6.85;;;2.47;;
32297;SDS011;18782;48.984;8.548;2022-11-02T03:22:51;6.45;;;2.38;;
32297;SDS011;18782;48.984;8.548;2022-11-02T03:25:25;6.38;;;2.20;;
32297;SDS011;18782;48.984;8.548;2022-11-02T03:27:58;2.58;;;1.63;;
32297;SDS011;18782;48.984;8.548;2022-11-02T03:30:39;8.25;;;2.65;;
32297;SDS011;18782;48.984;8.548;2022-11-02T03:33:13;7.15;;;2.17;;
32297;SDS011;18782;48.984;8.548;2022-11-02T03:35:47;8.27;;;2.60;;
32297;SDS011;18782;48.984;8.548;2022-11-02T03:38:23;9.90;;;2.22;;
32297;SDS011;18782;48.984;8.548;2022-11-02T03:40:58;6.00;;;2.50;;
32297;SDS011;18782;48.984;8.548;2022-11-02T03:43:28;7.82;;;2.28;;
32297;SDS011;18782;48.984;8.548;2022-11-02T03:46:01;5.47;;;2.35;;
32297;SDS011;18782;48.984;8.548;2022-11-02T03:48:33;7.72;;;2.35;;
32297;SDS011;18782;48.984;8.548;2022-11-02T03:51:05;5.75;;;2.25;;
32297;SDS011;18782;48.984;8.548;2022-11-02T03:53:40;4.03;;;1.93;;
32297;SDS011;18782;48.984;8.548;2022-11-02T03:56:13;5.40;;;2.30;;
32297;SDS011;18782;48.984;8.548;2022-11-02T03:58:46;8.90;;;2.50;;
32297;SDS011;18782;48.984;8.548;2022-11-02T04:01:15;7.28;;;2.63;;
32297;SDS011;18782;48.984;8.548;2022-11-02T04:03:47;5.57;;;2.45;;
32297;SDS011;18782;48.984;8.548;2022-11-02T04:06:16;5.95;;;2.30;;
32297;SDS011;18782;48.984;8.548;2022-11-02T04:08:44;3.65;;;2.33;;
32297;SDS011;18782;48.984;8.548;2022-11-02T04:11:17;5.97;;;2.65;;
32297;SDS011;18782;48.984;8.548;2022-11-02T04:14:07;11.93;;;4.22;;
32297;SDS011;18782;48.984;8.548;2022-11-02T04:17:10;5.32;;;2.70;;
32297;SDS011;18782;48.984;8.548;2022-11-02T04:19:59;6.50;;;2.22;;
32297;SDS011;18782;48.984;8.548;2022-11-02T04:22:27;6.13;;;2.67;;
32297;SDS011;18782;48.984;8.548;2022-11-02T04:25:15;7.28;;;2.60;;
32297;SDS011;18782;48.984;8.548;2022-11-02T04:28:05;3.55;;;2.22;;
32297;SDS011;18782;48.984;8.548;2022-11-02T04:31:03;5.45;;;2.33;;
32297;SDS011;18782;48.984;8.548;2022-11-02T04:33:37;4.83;;;2.33;;
32297;SDS011;18782;48.984;8.548;2022-11-02T04:36:08;4.60;;;2.70;;
32297;SDS011;18782;48.984;8.548;2022-11-02T04:38:37;4.45;;;2.00;;
32297;SDS011;18782;48.984;8.548;2022-11-02T04:41:27;4.13;;;2.30;;
32297;SDS011;18782;48.984;8.548;2022-11-02T04:44:33;5.32;;;1.60;;
32297;SDS011;18782;48.984;8.548;2022-11-02T04:47:04;3.83;;;1.75;;
32297;SDS011;18782;48.984;8.548;2022-11-02T04:49:35;7.35;;;1.92;;
32297;SDS011;18782;48.984;8.548;2022-11-02T04:52:06;4.87;;;2.27;;
32297;SDS011;18782;48.984;8.548;2022-11-02T04:54:37;6.80;;;2.80;;
32297;SDS011;18782;48.984;8.548;2022-11-02T04:57:06;5.63;;;1.77;;
32297;SDS011;18782;48.984;8.548;2022-11-02T04:59:33;6.65;;;2.00;;
32297;SDS011;18782;48.984;8.548;2022-11-02T05:02:01;4.15;;;1.80;;
32297;SDS011;18782;48.984;8.548;2022-11-02T05:04:29;3.58;;;1.52;;
32297;SDS011;18782;48.984;8.548;2022-11-02T05:06:58;14.27;;;2.03;;
32297;SDS011;18782;48.984;8.548;2022-11-02T05:09:31;7.88;;;1.48;;
32297;SDS011;18782;48.984;8.548;2022-11-02T05:11:58;4.68;;;1.33;;
32297;SDS011;18782;48.984;8.548;2022-11-02T05:14:27;5.03;;;1.27;;
32297;SDS011;18782;48.984;8.548;2022-11-02T05:16:54;6.68;;;1.77;;
32297;SDS011;18782;48.984;8.548;2022-11-02T05:19:22;6.30;;;1.60;;
32297;SDS011;18782;48.984;8.548;2022-11-02T05:21:50;4.30;;;1.50;;
32297;SDS011;18782;48.984;8.548;2022-11-02T05:24:19;6.43;;;2.00;;
32297;SDS011;18782;48.984;8.548;2022-11-02T05:26:49;4.25;;;1.58;;
32297;SDS011;18782;48.984;8.548;2022-11-02T05:29:21;6.80;;;2.33;;
32297;SDS011;18782;48.984;8.548;2022-11-02T05:31:50;3.33;;;1.98;;
32297;SDS011;18782;48.984;8.548;2022-11-02T05:34:18;9.77;;;2.78;;
32297;SDS011;18782;48.984;8.548;2022-11-02T05:36:47;9.10;;;2.72;;
32297;SDS011;18782;48.984;8.548;2022-11-02T05:39:15;7.47;;;1.40;;
32297;SDS011;18782;48.984;8.548;2022-11-02T05:41:44;9.30;;;1.50;;
32297;SDS011;18782;48.984;8.548;2022-11-02T05:44:12;4.45;;;0.88;;
32297;SDS011;18782;48.984;8.548;2022-11-02T05:46:41;9.00;;;1.10;;
32297;SDS011;18782;48.984;8.548;2022-11-02T05:49:09;7.95;;;1.55;;
32297;SDS011;18782;48.984;8.548;2022-11-02T05:51:36;6.40;;;1.33;;
32297;SDS011;18782;48.984;8.548;2022-11-02T05:54:04;6.68;;;1.10;;
32297;SDS011;18782;48.984;8.548;2022-11-02T05:56:32;5.43;;;1.15;;
32297;SDS011;18782;48.984;8.548;2022-11-02T05:59:01;11.50;;;1.58;;
32297;SDS011;18782;48.984;8.548;2022-11-02T06:01:29;9.55;;;2.03;;
32297;SDS011;18782;48.984;8.548;2022-11-02T06:03:57;5.25;;;1.10;;
32297;SDS011;18782;48.984;8.548;2022-11-02T06:06:24;5.53;;;0.82;;
32297;SDS011;18782;48.984;8.548;2022-11-02T06:08:52;7.80;;;1.75;;
32297;SDS011;18782;48.984;8.548;2022-11-02T06:11:20;6.00;;;1.05;;
32297;SDS011;18782;48.984;8.548;2022-11-02T06:13:49;6.82;;;1.10;;
32297;SDS011;18782;48.984;8.548;2022-11-02T06:16:18;5.85;;;1.02;;
32297;SDS011;18782;48.984;8.548;2022-11-02T06:18:48;12.02;;;1.77;;
32297;SDS011;18782;48.984;8.548;2022-11-02T06:21:16;6.38;;;1.00;;
32297;SDS011;18782;48.984;8.548;2022-11-02T06:23:45;5.28;;;1.38;;
32297;SDS011;18782;48.984;8.548;2022-11-02T06:26:13;5.07;;;1.15;;
32297;SDS011;18782;48.984;8.548;2022-11-02T06:28:40;8.25;;;1.42;;
32297;SDS011;18782;48.984;8.548;2022-11-02T06:31:09;7.57;;;1.88;;
32297;SDS011;18782;48.984;8.548;2022-11-02T06:33:38;5.18;;;1.20;;
32297;SDS011;18782;48.984;8.548;2022-11-02T06:36:07;7.57;;;2.25;;
32297;SDS011;18782;48.984;8.548;2022-11-02T06:38:35;4.70;;;1.63;;
32297;SDS011;18782;48.984;8.548;2022-11-02T06:41:03;4.53;;;1.05;;
32297;SDS011;18782;48.984;8.548;2022-11-02T06:43:33;5.57;;;1.20;;
32297;SDS011;18782;48.984;8.548;2022-11-02T06:46:03;7.07;;;0.90;;
32297;SDS011;18782;48.984;8.548;2022-11-02T06:48:31;6.32;;;1.58;;
32297;SDS011;18782;48.984;8.548;2022-11-02T06:51:02;5.13;;;1.10;;
32297;SDS011;18782;48.984;8.548;2022-11-02T06:53:31;3.33;;;1.55;;
32297;SDS011;18782;48.984;8.548;2022-11-02T06:55:59;11.30;;;2.90;;
32297;SDS011;18782;48.984;8.548;2022-11-02T06:58:27;4.15;;;1.00;;
32297;SDS011;18782;48.984;8.548;2022-11-02T07:00:55;3.92;;;1.00;;
32297;SDS011;18782;48.984;8.548;2022-11-02T07:03:24;3.50;;;0.77;;
32297;SDS011;18782;48.984;8.548;2022-11-02T07:05:52;6.65;;;1.00;;
32297;SDS011;18782;48.984;8.548;2022-11-02T07:08:21;4.32;;;0.77;;
32297;SDS011;18782;48.984;8.548;2022-11-02T07:10:49;7.30;;;1.77;;
32297;SDS011;18782;48.984;8.548;2022-11-02T07:13:16;7.80;;;1.65;;
32297;SDS011;18782;48.984;8.548;2022-11-02T07:15:44;7.40;;;2.03;;
32297;SDS011;18782;48.984;8.548;2022-11-02T07:18:12;8.13;;;2.03;;
32297;SDS011;18782;48.984;8.548;2022-11-02T07:20:40;10.70;;;1.48;;
32297;SDS011;18782;48.984;8.548;2022-11-02T07:23:07;6.15;;;1.17;;
32297;SDS011;18782;48.984;8.548;2022-11-02T07:25:37;3.95;;;0.90;;
32297;SDS011;18782;48.984;8.548;2022-11-02T07:28:05;5.38;;;0.93;;
32297;SDS011;18782;48.984;8.548;2022-11-02T07:30:33;3.35;;;0.90;;
32297;SDS011;18782;48.984;8.548;2022-11-02T07:33:01;5.38;;;1.35;;
32297;SDS011;18782;48.984;8.548;2022-11-02T07:35:29;6.43;;;0.93;;
32297;SDS011;18782;48.984;8.548;2022-11-02T07:37:59;7.22;;;1.70;;
32297;SDS011;18782;48.984;8.548;2022-11-02T07:40:28;5.50;;;1.13;;
32297;SDS011;18782;48.984;8.548;2022-11-02T07:42:58;3.17;;;1.30;;
32297;SDS011;18782;48.984;8.548;2022-11-02T07:45:40;6.63;;;1.30;;
32297;SDS011;18782;48.984;8.548;2022-11-02T07:48:07;8.25;;;1.30;;
32297;SDS011;18782;48.984;8.548;2022-11-02T07:50:35;6.82;;;1.25;;
32297;SDS011;18782;48.984;8.548;2022-11-02T07:53:02;3.30;;;0.80;;
32297;SDS011;18782;48.984;8.548;2022-11-02T07:55:31;6.22;;;1.73;;
32297;SDS011;18782;48.984;8.548;2022-11-02T07:58:00;4.63;;;0.80;;
32297;SDS011;18782;48.984;8.548;2022-11-02T08:00:30;8.25;;;1.73;;
32297;SDS011;18782;48.984;8.548;2022-11-02T08:02:59;6.65;;;1.45;;
32297;SDS011;18782;48.984;8.548;2022-11-02T08:05:29;3.45;;;0.90;;
32297;SDS011;18782;48.984;8.548;2022-11-02T08:08:00;6.03;;;1.00;;
32297;SDS011;18782;48.984;8.548;2022-11-02T08:10:29;7.40;;;1.10;;
32297;SDS011;18782;48.984;8.548;2022-11-02T08:13:05;7.90;;;1.10;;
32297;SDS011;18782;48.984;8.548;2022-11-02T08:15:33;3.22;;;0.57;;
32297;SDS011;18782;48.984;8.548;2022-11-02T08:18:00;4.35;;;0.85;;
32297;SDS011;18782;48.984;8.548;2022-11-02T08:20:30;3.33;;;0.90;;
32297;SDS011;18782;48.984;8.548;2022-11-02T08:22:59;4.25;;;0.82;;
32297;SDS011;18782;48.984;8.548;2022-11-02T08:25:27;3.65;;;0.90;;
32297;SDS011;18782;48.984;8.548;2022-11-02T08:27:55;8.98;;;1.30;;
32297;SDS011;18782;48.984;8.548;2022-11-02T08:30:26;6.18;;;0.90;;
32297;SDS011;18782;48.984;8.548;2022-11-02T08:32:55;7.68;;;0.95;;
32297;SDS011;18782;48.984;8.548;2022-11-02T08:37:56;3.45;;;0.77;;
32297;SDS011;18782;48.984;8.548;2022-11-02T08:40:25;3.00;;;0.80;;
32297;SDS011;18782;48.984;8.548;2022-11-02T08:42:56;4.53;;;1.35;;
32297;SDS011;18782;48.984;8.548;2022-11-02T08:45:26;8.75;;;1.75;;
32297;SDS011;18782;48.984;8.548;2022-11-02T08:47:53;4.00;;;0.70;;
32297;SDS011;18782;48.984;8.548;2022-11-02T08:50:21;16.88;;;3.10;;
32297;SDS011;18782;48.984;8.548;2022-11-02T08:52:50;6.43;;;1.02;;
32297;SDS011;18782;48.984;8.548;2022-11-02T08:55:18;4.72;;;0.77;;
32297;SDS011;18782;48.984;8.548;2022-11-02T08:57:45;7.85;;;2.30;;
32297;SDS011;18782;48.984;8.548;2022-11-02T09:00:14;7.30;;;1.00;;
32297;SDS011;18782;48.984;8.548;2022-11-02T09:02:56;5.55;;;1.10;;
32297;SDS011;18782;48.984;8.548;2022-11-02T09:05:25;7.18;;;1.85;;
32297;SDS011;18782;48.984;8.548;2022-11-02T09:07:53;8.27;;;1.80;;
32297;SDS011;18782;48.984;8.548;2022-11-02T09:10:21;5.85;;;1.02;;
32297;SDS011;18782;48.984;8.548;2022-11-02T09:12:49;5.88;;;0.82;;
32297;SDS011;18782;48.984;8.548;2022-11-02T09:15:16;7.75;;;1.23;;
32297;SDS011;18782;48.984;8.548;2022-11-02T09:17:46;7.22;;;1.05;;
32297;SDS011;18782;48.984;8.548;2022-11-02T09:20:15;8.55;;;0.85;;
32297;SDS011;18782;48.984;8.548;2022-11-02T09:22:43;4.65;;;0.90;;
32297;SDS011;18782;48.984;8.548;2022-11-02T09:25:12;5.13;;;0.75;;
32297;SDS011;18782;48.984;8.548;2022-11-02T09:27:40;9.48;;;1.20;;
32297;SDS011;18782;48.984;8.548;2022-11-02T09:30:09;3.50;;;0.90;;
32297;SDS011;18782;48.984;8.548;2022-11-02T09:32:37;5.95;;;1.13;;
32297;SDS011;18782;48.984;8.548;2022-11-02T09:35:07;4.90;;;0.95;;
32297;SDS011;18782;48.984;8.548;2022-11-02T09:37:37;11.10;;;2.00;;
32297;SDS011;18782;48.984;8.548;2022-11-02T09:40:05;4.97;;;0.90;;
32297;SDS011;18782;48.984;8.548;2022-11-02T09:42:34;7.88;;;1.40;;
32297;SDS011;18782;48.984;8.548;2022-11-02T09:45:11;8.05;;;1.17;;
32297;SDS011;18782;48.984;8.548;2022-11-02T09:47:42;8.87;;;0.83;;
32297;SDS011;18782;48.984;8.548;2022-11-02T09:50:39;8.00;;;1.67;;
32297;SDS011;18782;48.984;8.548;2022-11-02T09:53:12;7.72;;;1.10;;
32297;SDS011;18782;48.984;8.548;2022-11-02T09:55:47;7.25;;;0.73;;
32297;SDS011;18782;48.984;8.548;2022-11-02T09:58:19;4.97;;;1.05;;
32297;SDS011;18782;48.984;8.548;2022-11-02T10:00:50;5.32;;;1.20;;
32297;SDS011;18782;48.984;8.548;2022-11-02T10:03:30;8.73;;;1.27;;
32297;SDS011;18782;48.984;8.548;2022-11-02T10:06:08;5.53;;;0.70;;
32297;SDS011;18782;48.984;8.548;2022-11-02T10:08:42;3.65;;;1.10;;
32297;SDS011;18782;48.984;8.548;2022-11-02T10:11:20;9.70;;;1.10;;
32297;SDS011;18782;48.984;8.548;2022-11-02T10:13:59;4.95;;;1.00;;
32297;SDS011;18782;48.984;8.548;2022-11-02T10:16:32;12.20;;;1.97;;
32297;SDS011;18782;48.984;8.548;2022-11-02T10:19:03;8.18;;;1.30;;
32297;SDS011;18782;48.984;8.548;2022-11-02T10:21:39;7.95;;;1.15;;
32297;SDS011;18782;48.984;8.548;2022-11-02T10:24:15;5.95;;;1.00;;
32297;SDS011;18782;48.984;8.548;2022-11-02T10:26:50;7.43;;;1.33;;
32297;SDS011;18782;48.984;8.548;2022-11-02T10:29:25;6.83;;;0.97;;
32297;SDS011;18782;48.984;8.548;2022-11-02T10:32:09;7.72;;;1.75;;
32297;SDS011;18782;48.984;8.548;2022-11-02T10:34:38;7.40;;;1.00;;
32297;SDS011;18782;48.984;8.548;2022-11-02T10:37:13;7.35;;;1.40;;
32297;SDS011;18782;48.984;8.548;2022-11-02T10:39:50;4.28;;;0.85;;
32297;SDS011;18782;48.984;8.548;2022-11-02T10:42:50;5.15;;;0.95;;
32297;SDS011;18782;48.984;8.548;2022-11-02T10:45:32;7.63;;;1.20;;
32297;SDS011;18782;48.984;8.548;2022-11-02T10:48:12;5.68;;;1.00;;
32297;SDS011;18782;48.984;8.548;2022-11-02T10:50:52;7.05;;;1.08;;
32297;SDS011;18782;48.984;8.548;2022-11-02T10:53:31;6.78;;;0.90;;
32297;SDS011;18782;48.984;8.548;2022-11-02T10:56:09;5.63;;;1.02;;
32297;SDS011;18782;48.984;8.548;2022-11-02T10:58:43;7.55;;;1.35;;
32297;SDS011;18782;48.984;8.548;2022-11-02T11:01:14;7.10;;;1.35;;
32297;SDS011;18782;48.984;8.548;2022-11-02T11:03:51;6.03;;;1.00;;
32297;SDS011;18782;48.984;8.548;2022-11-02T11:06:20;7.80;;;1.65;;
32297;SDS011;18782;48.984;8.548;2022-11-02T11:08:50;7.50;;;1.02;;
32297;SDS011;18782;48.984;8.548;2022-11-02T11:11:19;10.30;;;1.33;;
32297;SDS011;18782;48.984;8.548;2022-11-02T11:13:53;7.90;;;1.25;;
32297;SDS011;18782;48.984;8.548;2022-11-02T11:16:44;7.60;;;1.40;;
32297;SDS011;18782;48.984;8.548;2022-11-02T11:19:17;6.05;;;1.20;;
32297;SDS011;18782;48.984;8.548;2022-11-02T11:22:21;5.50;;;1.10;;
32297;SDS011;18782;48.984;8.548;2022-11-02T11:24:52;5.78;;;1.10;;
32297;SDS011;18782;48.984;8.548;2022-11-02T11:27:20;6.25;;;1.00;;
32297;SDS011;18782;48.984;8.548;2022-11-02T11:29:52;6.63;;;0.98;;
32297;SDS011;18782;48.984;8.548;2022-11-02T11:32:22;8.18;;;1.20;;
32297;SDS011;18782;48.984;8.548;2022-11-02T11:34:56;7.47;;;1.40;;
32297;SDS011;18782;48.984;8.548;2022-11-02T11:37:26;7.55;;;1.65;;
32297;SDS011;18782;48.984;8.548;2022-11-02T11:39:56;5.75;;;1.05;;
32297;SDS011;18782;48.984;8.548;2022-11-02T11:42:28;6.50;;;1.00;;
32297;SDS011;18782;48.984;8.548;2022-11-02T11:45:00;7.97;;;1.20;;
32297;SDS011;18782;48.984;8.548;2022-11-02T11:47:31;6.93;;;1.10;;
32297;SDS011;18782;48.984;8.548;2022-11-02T11:50:02;8.30;;;1.17;;
32297;SDS011;18782;48.984;8.548;2022-11-02T11:52:44;10.00;;;2.03;;
32297;SDS011;18782;48.984;8.548;2022-11-02T11:55:20;9.45;;;1.08;;
32297;SDS011;18782;48.984;8.548;2022-11-02T11:58:03;6.70;;;1.13;;
32297;SDS011;18782;48.984;8.548;2022-11-02T12:00:32;7.65;;;1.10;;
32297;SDS011;18782;48.984;8.548;2022-11-02T12:03:03;7.68;;;1.13;;
32297;SDS011;18782;48.984;8.548;2022-11-02T12:08:08;7.25;;;1.92;;
32297;SDS011;18782;48.984;8.548;2022-11-02T12:10:59;10.55;;;1.30;;
32297;SDS011;18782;48.984;8.548;2022-11-02T12:13:46;6.45;;;1.27;;
32297;SDS011;18782;48.984;8.548;2022-11-02T12:16:23;10.68;;;1.45;;
32297;SDS011;18782;48.984;8.548;2022-11-02T12:22:00;5.60;;;1.27;;
32297;SDS011;18782;48.984;8.548;2022-11-02T12:27:45;8.52;;;0.90;;
32297;SDS011;18782;48.984;8.548;2022-11-02T12:30:22;5.55;;;1.20;;
32297;SDS011;18782;48.984;8.548;2022-11-02T12:32:57;7.30;;;1.45;;
32297;SDS011;18782;48.984;8.548;2022-11-02T12:35:48;6.60;;;1.85;;
32297;SDS011;18782;48.984;8.548;2022-11-02T12:43:49;7.30;;;1.38;;
32297;SDS011;18782;48.984;8.548;2022-11-02T12:46:27;5.40;;;1.00;;
32297;SDS011;18782;48.984;8.548;2022-11-02T12:49:08;7.07;;;1.25;;
32297;SDS011;18782;48.984;8.548;2022-11-02T12:51:48;6.13;;;1.92;;
32297;SDS011;18782;48.984;8.548;2022-11-02T12:54:22;6.65;;;1.30;;
32297;SDS011;18782;48.984;8.548;2022-11-02T12:56:54;8.30;;;1.50;;
32297;SDS011;18782;48.984;8.548;2022-11-02T12:59:24;8.35;;;1.58;;
32297;SDS011;18782;48.984;8.548;2022-11-02T13:01:54;8.82;;;1.70;;
32297;SDS011;18782;48.984;8.548;2022-11-02T13:04:26;7.18;;;1.00;;
32297;SDS011;18782;48.984;8.548;2022-11-02T13:07:04;5.13;;;0.88;;
32297;SDS011;18782;48.984;8.548;2022-11-02T13:09:37;6.93;;;1.13;;
32297;SDS011;18782;48.984;8.548;2022-11-02T13:12:14;5.22;;;1.17;;
32297;SDS011;18782;48.984;8.548;2022-11-02T13:14:46;4.20;;;0.85;;
32297;SDS011;18782;48.984;8.548;2022-11-02T13:17:17;5.10;;;1.30;;
32297;SDS011;18782;48.984;8.548;2022-11-02T13:19:49;6.00;;;1.20;;
32297;SDS011;18782;48.984;8.548;2022-11-02T13:22:25;9.85;;;1.80;;
32297;SDS011;18782;48.984;8.548;2022-11-02T13:24:55;5.20;;;0.90;;
32297;SDS011;18782;48.984;8.548;2022-11-02T13:27:29;7.07;;;1.15;;
32297;SDS011;18782;48.984;8.548;2022-11-02T13:30:04;6.97;;;2.10;;
32297;SDS011;18782;48.984;8.548;2022-11-02T13:32:40;6.05;;;1.23;;
32297;SDS011;18782;48.984;8.548;2022-11-02T13:35:13;3.80;;;0.90;;
32297;SDS011;18782;48.984;8.548;2022-11-02T13:37:45;6.57;;;1.17;;
32297;SDS011;18782;48.984;8.548;2022-11-02T13:40:19;7.95;;;1.27;;
32297;SDS011;18782;48.984;8.548;2022-11-02T13:46:20;6.07;;;1.10;;
32297;SDS011;18782;48.984;8.548;2022-11-02T13:48:58;7.53;;;1.02;;
32297;SDS011;18782;48.984;8.548;2022-11-02T13:51:31;6.00;;;1.10;;
32297;SDS011;18782;48.984;8.548;2022-11-02T13:54:03;5.75;;;1.65;;
32297;SDS011;18782;48.984;8.548;2022-11-02T13:56:36;4.15;;;1.20;;
32297;SDS011;18782;48.984;8.548;2022-11-02T13:59:05;5.30;;;1.10;;
32297;SDS011;18782;48.984;8.548;2022-11-02T14:01:37;6.85;;;1.55;;
32297;SDS011;18782;48.984;8.548;2022-11-02T14:04:07;6.95;;;1.58;;
32297;SDS011;18782;48.984;8.548;2022-11-02T14:06:47;3.72;;;0.98;;
32297;SDS011;18782;48.984;8.548;2022-11-02T14:09:23;5.47;;;1.23;;
32297;SDS011;18782;48.984;8.548;2022-11-02T14:18:14;5.75;;;1.13;;
32297;SDS011;18782;48.984;8.548;2022-11-02T14:20:56;5.28;;;1.30;;
32297;SDS011;18782;48.984;8.548;2022-11-02T14:23:32;6.50;;;1.42;;
32297;SDS011;18782;48.984;8.548;2022-11-02T14:28:57;4.18;;;1.20;;
32297;SDS011;18782;48.984;8.548;2022-11-02T14:31:29;9.02;;;1.75;;
32297;SDS011;18782;48.984;8.548;2022-11-02T14:34:10;5.53;;;1.50;;
32297;SDS011;18782;48.984;8.548;2022-11-02T14:36:58;8.07;;;2.65;;
32297;SDS011;18782;48.984;8.548;2022-11-02T14:39:44;8.68;;;2.80;;
32297;SDS011;18782;48.984;8.548;2022-11-02T14:45:17;5.20;;;1.45;;
32297;SDS011;18782;48.984;8.548;2022-11-02T14:47:59;4.35;;;1.50;;
32297;SDS011;18782;48.984;8.548;2022-11-02T14:50:30;5.32;;;1.60;;
32297;SDS011;18782;48.984;8.548;2022-11-02T14:53:00;5.15;;;1.90;;
32297;SDS011;18782;48.984;8.548;2022-11-02T14:55:33;6.20;;;1.85;;
32297;SDS011;18782;48.984;8.548;2022-11-02T14:58:03;7.63;;;1.60;;
32297;SDS011;18782;48.984;8.548;2022-11-02T15:00:53;4.57;;;1.10;;
32297;SDS011;18782;48.984;8.548;2022-11-02T15:06:00;6.28;;;1.23;;
32297;SDS011;18782;48.984;8.548;2022-11-02T15:08:30;3.83;;;1.35;;
32297;SDS011;18782;48.984;8.548;2022-11-02T15:14:01;6.97;;;2.60;;
32297;SDS011;18782;48.984;8.548;2022-11-02T15:16:50;9.27;;;4.10;;
32297;SDS011;18782;48.984;8.548;2022-11-02T15:19:29;8.93;;;4.50;;
32297;SDS011;18782;48.984;8.548;2022-11-02T15:25:05;12.55;;;4.32;;
32297;SDS011;18782;48.984;8.548;2022-11-02T15:27:39;22.33;;;8.95;;
32297;SDS011;18782;48.984;8.548;2022-11-02T15:30:11;39.05;;;14.00;;
32297;SDS011;18782;48.984;8.548;2022-11-02T15:32:41;33.47;;;11.45;;
32297;SDS011;18782;48.984;8.548;2022-11-02T15:35:15;20.57;;;7.60;;
32297;SDS011;18782;48.984;8.548;2022-11-02T15:37:47;11.73;;;3.17;;
32297;SDS011;18782;48.984;8.548;2022-11-02T15:40:42;10.82;;;2.38;;
32297;SDS011;18782;48.984;8.548;2022-11-02T15:43:28;9.98;;;2.53;;
32297;SDS011;18782;48.984;8.548;2022-11-02T15:46:08;12.68;;;4.57;;
32297;SDS011;18782;48.984;8.548;2022-11-02T15:48:45;10.93;;;3.50;;
32297;SDS011;18782;48.984;8.548;2022-11-02T15:51:20;7.50;;;1.90;;
32297;SDS011;18782;48.984;8.548;2022-11-02T15:54:05;9.10;;;1.95;;
32297;SDS011;18782;48.984;8.548;2022-11-02T15:56:46;5.22;;;1.73;;
32297;SDS011;18782;48.984;8.548;2022-11-02T15:59:31;7.75;;;1.83;;
32297;SDS011;18782;48.984;8.548;2022-11-02T16:02:21;8.18;;;2.30;;